sensor_id;sensor_type;location;lat;lon;timestamp;P1;durP1;ratioP1;P2;durP2;ratioP2
31210;SDS011;17836;50.948;3.946;2023-09-12T00:04:57;22.65;;;19.33;;
31210;SDS011;17836;50.948;3.946;2023-09-12T00:07:24;26.70;;;19.03;;
31210;SDS011;17836;50.948;3.946;2023-09-12T00:09:50;27.75;;;20.08;;
31210;SDS011;17836;50.948;3.946;2023-09-12T00:12:15;24.97;;;19.87;;
31210;SDS011;17836;50.948;3.946;2023-09-12T00:14:40;25.50;;;19.45;;
31210;SDS011;17836;50.948;3.946;2023-09-12T00:17:06;23.43;;;18.50;;
31210;SDS011;17836;50.948;3.946;2023-09-12T00:19:31;27.20;;;19.63;;
31210;SDS011;17836;50.948;3.946;2023-09-12T00:21:56;24.63;;;19.50;;
31210;SDS011;17836;50.948;3.946;2023-09-12T00:24:21;24.73;;;19.33;;
31210;SDS011;17836;50.948;3.946;2023-09-12T00:26:47;27.00;;;19.97;;
31210;SDS011;17836;50.948;3.946;2023-09-12T00:29:12;28.73;;;20.57;;
31210;SDS011;17836;50.948;3.946;2023-09-12T00:31:37;26.13;;;19.48;;
31210;SDS011;17836;50.948;3.946;2023-09-12T00:34:03;22.65;;;19.85;;
31210;SDS011;17836;50.948;3.946;2023-09-12T00:36:28;24.43;;;21.03;;
31210;SDS011;17836;50.948;3.946;2023-09-12T00:38:53;26.10;;;20.73;;
31210;SDS011;17836;50.948;3.946;2023-09-12T00:41:18;25.30;;;20.03;;
31210;SDS011;17836;50.948;3.946;2023-09-12T00:43:44;24.63;;;20.90;;
31210;SDS011;17836;50.948;3.946;2023-09-12T00:46:09;30.50;;;23.10;;
31210;SDS011;17836;50.948;3.946;2023-09-12T00:48:34;26.67;;;21.83;;
31210;SDS011;17836;50.948;3.946;2023-09-12T00:51:01;30.33;;;22.15;;
31210;SDS011;17836;50.948;3.946;2023-09-12T00:53:26;30.02;;;20.70;;
31210;SDS011;17836;50.948;3.946;2023-09-12T00:55:54;27.35;;;20.83;;
31210;SDS011;17836;50.948;3.946;2023-09-12T00:58:21;24.23;;;20.98;;
31210;SDS011;17836;50.948;3.946;2023-09-12T01:00:47;28.77;;;22.13;;
31210;SDS011;17836;50.948;3.946;2023-09-12T01:03:14;31.75;;;22.13;;
31210;SDS011;17836;50.948;3.946;2023-09-12T01:05:43;31.50;;;20.92;;
31210;SDS011;17836;50.948;3.946;2023-09-12T01:08:08;26.77;;;21.27;;
31210;SDS011;17836;50.948;3.946;2023-09-12T01:10:34;25.02;;;20.17;;
31210;SDS011;17836;50.948;3.946;2023-09-12T01:13:02;24.73;;;21.30;;
31210;SDS011;17836;50.948;3.946;2023-09-12T01:20:32;27.80;;;20.50;;
31210;SDS011;17836;50.948;3.946;2023-09-12T01:28:24;22.75;;;19.20;;
31210;SDS011;17836;50.948;3.946;2023-09-12T01:30:53;26.65;;;19.95;;
31210;SDS011;17836;50.948;3.946;2023-09-12T01:33:19;28.73;;;22.13;;
31210;SDS011;17836;50.948;3.946;2023-09-12T01:35:44;24.08;;;20.83;;
31210;SDS011;17836;50.948;3.946;2023-09-12T01:38:11;27.17;;;21.52;;
31210;SDS011;17836;50.948;3.946;2023-09-12T01:40:46;27.17;;;21.13;;
31210;SDS011;17836;50.948;3.946;2023-09-12T01:43:15;28.23;;;21.65;;
31210;SDS011;17836;50.948;3.946;2023-09-12T01:45:41;26.30;;;20.88;;
31210;SDS011;17836;50.948;3.946;2023-09-12T01:48:07;31.75;;;23.13;;
31210;SDS011;17836;50.948;3.946;2023-09-12T01:50:33;28.27;;;22.02;;
31210;SDS011;17836;50.948;3.946;2023-09-12T01:52:59;30.02;;;21.80;;
31210;SDS011;17836;50.948;3.946;2023-09-12T01:55:25;27.05;;;22.80;;
31210;SDS011;17836;50.948;3.946;2023-09-12T01:57:50;27.50;;;22.50;;
31210;SDS011;17836;50.948;3.946;2023-09-12T02:00:17;27.42;;;21.27;;
31210;SDS011;17836;50.948;3.946;2023-09-12T02:02:42;30.80;;;23.15;;
31210;SDS011;17836;50.948;3.946;2023-09-12T02:05:22;28.88;;;21.63;;
31210;SDS011;17836;50.948;3.946;2023-09-12T02:07:50;39.05;;;22.88;;
31210;SDS011;17836;50.948;3.946;2023-09-12T02:10:15;29.02;;;21.70;;
31210;SDS011;17836;50.948;3.946;2023-09-12T02:12:40;24.48;;;20.55;;
31210;SDS011;17836;50.948;3.946;2023-09-12T02:15:06;25.33;;;20.45;;
31210;SDS011;17836;50.948;3.946;2023-09-12T02:17:31;30.92;;;22.75;;
31210;SDS011;17836;50.948;3.946;2023-09-12T02:19:57;28.17;;;21.70;;
31210;SDS011;17836;50.948;3.946;2023-09-12T02:22:22;30.73;;;21.58;;
31210;SDS011;17836;50.948;3.946;2023-09-12T02:24:47;30.50;;;22.93;;
31210;SDS011;17836;50.948;3.946;2023-09-12T02:27:13;28.98;;;21.55;;
31210;SDS011;17836;50.948;3.946;2023-09-12T02:29:41;28.77;;;21.10;;
31210;SDS011;17836;50.948;3.946;2023-09-12T02:32:06;33.38;;;21.80;;
31210;SDS011;17836;50.948;3.946;2023-09-12T02:34:32;26.25;;;22.10;;
31210;SDS011;17836;50.948;3.946;2023-09-12T02:37:00;29.23;;;22.15;;
31210;SDS011;17836;50.948;3.946;2023-09-12T02:39:25;27.42;;;22.33;;
31210;SDS011;17836;50.948;3.946;2023-09-12T02:41:50;31.43;;;22.00;;
31210;SDS011;17836;50.948;3.946;2023-09-12T02:44:16;31.33;;;22.10;;
31210;SDS011;17836;50.948;3.946;2023-09-12T02:46:43;29.95;;;22.58;;
31210;SDS011;17836;50.948;3.946;2023-09-12T02:49:11;30.83;;;23.17;;
31210;SDS011;17836;50.948;3.946;2023-09-12T02:51:39;33.42;;;22.45;;
31210;SDS011;17836;50.948;3.946;2023-09-12T02:54:05;28.40;;;21.20;;
31210;SDS011;17836;50.948;3.946;2023-09-12T02:56:30;32.13;;;21.92;;
31210;SDS011;17836;50.948;3.946;2023-09-12T02:58:55;29.15;;;20.40;;
31210;SDS011;17836;50.948;3.946;2023-09-12T03:01:21;30.67;;;22.90;;
31210;SDS011;17836;50.948;3.946;2023-09-12T03:03:46;30.23;;;22.73;;
31210;SDS011;17836;50.948;3.946;2023-09-12T03:06:14;29.83;;;21.73;;
31210;SDS011;17836;50.948;3.946;2023-09-12T03:08:40;31.40;;;22.92;;
31210;SDS011;17836;50.948;3.946;2023-09-12T03:11:05;28.85;;;22.23;;
31210;SDS011;17836;50.948;3.946;2023-09-12T03:13:32;31.70;;;23.33;;
31210;SDS011;17836;50.948;3.946;2023-09-12T03:15:58;33.17;;;23.88;;
31210;SDS011;17836;50.948;3.946;2023-09-12T03:18:23;31.20;;;22.92;;
31210;SDS011;17836;50.948;3.946;2023-09-12T03:20:48;31.90;;;22.63;;
31210;SDS011;17836;50.948;3.946;2023-09-12T03:23:16;29.55;;;22.23;;
31210;SDS011;17836;50.948;3.946;2023-09-12T03:25:41;29.75;;;21.85;;
31210;SDS011;17836;50.948;3.946;2023-09-12T03:28:07;32.33;;;23.00;;
31210;SDS011;17836;50.948;3.946;2023-09-12T03:30:35;30.65;;;22.75;;
31210;SDS011;17836;50.948;3.946;2023-09-12T03:33:01;31.20;;;21.30;;
31210;SDS011;17836;50.948;3.946;2023-09-12T03:35:26;26.70;;;20.97;;
31210;SDS011;17836;50.948;3.946;2023-09-12T03:37:52;31.05;;;22.85;;
31210;SDS011;17836;50.948;3.946;2023-09-12T03:40:17;31.43;;;21.83;;
31210;SDS011;17836;50.948;3.946;2023-09-12T03:42:42;29.37;;;22.10;;
31210;SDS011;17836;50.948;3.946;2023-09-12T03:45:08;29.73;;;21.93;;
31210;SDS011;17836;50.948;3.946;2023-09-12T03:47:33;27.35;;;21.23;;
31210;SDS011;17836;50.948;3.946;2023-09-12T03:49:58;30.48;;;22.25;;
31210;SDS011;17836;50.948;3.946;2023-09-12T03:52:23;25.60;;;21.10;;
31210;SDS011;17836;50.948;3.946;2023-09-12T03:54:49;30.47;;;22.43;;
31210;SDS011;17836;50.948;3.946;2023-09-12T03:57:14;27.63;;;20.57;;
31210;SDS011;17836;50.948;3.946;2023-09-12T03:59:39;28.87;;;21.37;;
31210;SDS011;17836;50.948;3.946;2023-09-12T04:02:04;29.67;;;21.53;;
31210;SDS011;17836;50.948;3.946;2023-09-12T04:04:30;29.80;;;22.17;;
31210;SDS011;17836;50.948;3.946;2023-09-12T04:06:55;28.83;;;22.13;;
31210;SDS011;17836;50.948;3.946;2023-09-12T04:09:20;28.27;;;21.13;;
31210;SDS011;17836;50.948;3.946;2023-09-12T04:11:46;31.75;;;21.65;;
31210;SDS011;17836;50.948;3.946;2023-09-12T04:14:14;30.73;;;21.58;;
31210;SDS011;17836;50.948;3.946;2023-09-12T04:16:39;24.77;;;21.00;;
31210;SDS011;17836;50.948;3.946;2023-09-12T04:19:04;30.15;;;22.45;;
31210;SDS011;17836;50.948;3.946;2023-09-12T04:21:30;34.53;;;20.97;;
31210;SDS011;17836;50.948;3.946;2023-09-12T04:23:55;29.05;;;21.98;;
31210;SDS011;17836;50.948;3.946;2023-09-12T04:26:20;28.43;;;22.43;;
31210;SDS011;17836;50.948;3.946;2023-09-12T04:28:49;30.48;;;21.10;;
31210;SDS011;17836;50.948;3.946;2023-09-12T04:31:15;27.52;;;21.40;;
31210;SDS011;17836;50.948;3.946;2023-09-12T04:33:40;33.17;;;21.52;;
31210;SDS011;17836;50.948;3.946;2023-09-12T04:36:05;32.00;;;21.93;;
31210;SDS011;17836;50.948;3.946;2023-09-12T04:38:31;28.33;;;21.37;;
31210;SDS011;17836;50.948;3.946;2023-09-12T04:40:59;28.13;;;21.10;;
31210;SDS011;17836;50.948;3.946;2023-09-12T04:43:28;27.25;;;19.85;;
31210;SDS011;17836;50.948;3.946;2023-09-12T04:45:53;26.83;;;20.88;;
31210;SDS011;17836;50.948;3.946;2023-09-12T04:48:21;26.50;;;21.00;;
31210;SDS011;17836;50.948;3.946;2023-09-12T04:50:46;22.63;;;20.23;;
31210;SDS011;17836;50.948;3.946;2023-09-12T04:53:11;30.57;;;20.53;;
31210;SDS011;17836;50.948;3.946;2023-09-12T04:55:37;24.63;;;20.47;;
31210;SDS011;17836;50.948;3.946;2023-09-12T04:58:02;25.92;;;19.80;;
31210;SDS011;17836;50.948;3.946;2023-09-12T05:00:28;28.85;;;19.75;;
31210;SDS011;17836;50.948;3.946;2023-09-12T05:02:53;25.43;;;18.73;;
31210;SDS011;17836;50.948;3.946;2023-09-12T05:05:18;25.20;;;18.60;;
31210;SDS011;17836;50.948;3.946;2023-09-12T05:07:43;25.23;;;19.60;;
31210;SDS011;17836;50.948;3.946;2023-09-12T05:10:09;26.43;;;20.10;;
31210;SDS011;17836;50.948;3.946;2023-09-12T05:12:34;29.43;;;20.53;;
31210;SDS011;17836;50.948;3.946;2023-09-12T05:14:59;25.27;;;20.40;;
31210;SDS011;17836;50.948;3.946;2023-09-12T05:17:24;26.33;;;19.97;;
31210;SDS011;17836;50.948;3.946;2023-09-12T05:19:50;26.83;;;20.45;;
31210;SDS011;17836;50.948;3.946;2023-09-12T05:22:15;29.58;;;20.33;;
31210;SDS011;17836;50.948;3.946;2023-09-12T05:24:40;25.30;;;20.07;;
31210;SDS011;17836;50.948;3.946;2023-09-12T05:27:06;46.35;;;26.40;;
31210;SDS011;17836;50.948;3.946;2023-09-12T05:29:31;46.00;;;25.63;;
31210;SDS011;17836;50.948;3.946;2023-09-12T05:31:56;37.90;;;24.63;;
31210;SDS011;17836;50.948;3.946;2023-09-12T05:34:21;44.57;;;25.10;;
31210;SDS011;17836;50.948;3.946;2023-09-12T05:36:47;47.77;;;25.93;;
31210;SDS011;17836;50.948;3.946;2023-09-12T05:39:12;45.40;;;29.10;;
31210;SDS011;17836;50.948;3.946;2023-09-12T05:41:39;58.85;;;30.35;;
31210;SDS011;17836;50.948;3.946;2023-09-12T05:44:06;63.47;;;35.40;;
31210;SDS011;17836;50.948;3.946;2023-09-12T05:46:31;70.90;;;38.65;;
31210;SDS011;17836;50.948;3.946;2023-09-12T05:48:57;73.17;;;38.63;;
31210;SDS011;17836;50.948;3.946;2023-09-12T05:51:22;70.72;;;38.28;;
31210;SDS011;17836;50.948;3.946;2023-09-12T05:53:47;70.40;;;39.07;;
31210;SDS011;17836;50.948;3.946;2023-09-12T05:56:13;68.47;;;40.53;;
31210;SDS011;17836;50.948;3.946;2023-09-12T05:58:38;74.60;;;38.63;;
31210;SDS011;17836;50.948;3.946;2023-09-12T06:01:07;73.43;;;37.92;;
31210;SDS011;17836;50.948;3.946;2023-09-12T06:03:32;72.97;;;40.78;;
31210;SDS011;17836;50.948;3.946;2023-09-12T06:05:58;71.73;;;40.93;;
31210;SDS011;17836;50.948;3.946;2023-09-12T06:08:23;67.93;;;39.80;;
31210;SDS011;17836;50.948;3.946;2023-09-12T06:10:49;63.38;;;37.67;;
31210;SDS011;17836;50.948;3.946;2023-09-12T06:13:18;69.72;;;40.50;;
31210;SDS011;17836;50.948;3.946;2023-09-12T06:15:43;63.73;;;40.80;;
31210;SDS011;17836;50.948;3.946;2023-09-12T06:18:09;67.85;;;40.00;;
31210;SDS011;17836;50.948;3.946;2023-09-12T06:20:34;64.33;;;37.83;;
31210;SDS011;17836;50.948;3.946;2023-09-12T06:22:59;58.17;;;39.30;;
31210;SDS011;17836;50.948;3.946;2023-09-12T06:25:24;62.53;;;38.67;;
31210;SDS011;17836;50.948;3.946;2023-09-12T06:27:50;67.78;;;40.47;;
31210;SDS011;17836;50.948;3.946;2023-09-12T06:30:15;63.58;;;40.65;;
31210;SDS011;17836;50.948;3.946;2023-09-12T06:32:40;67.57;;;41.35;;
31210;SDS011;17836;50.948;3.946;2023-09-12T06:35:06;68.33;;;39.17;;
31210;SDS011;17836;50.948;3.946;2023-09-12T06:37:31;64.90;;;39.75;;
31210;SDS011;17836;50.948;3.946;2023-09-12T06:39:57;63.60;;;39.77;;
31210;SDS011;17836;50.948;3.946;2023-09-12T06:42:22;64.30;;;39.30;;
31210;SDS011;17836;50.948;3.946;2023-09-12T06:44:47;54.97;;;36.27;;
31210;SDS011;17836;50.948;3.946;2023-09-12T06:47:12;57.30;;;36.87;;
31210;SDS011;17836;50.948;3.946;2023-09-12T06:49:38;59.78;;;36.40;;
31210;SDS011;17836;50.948;3.946;2023-09-12T06:52:03;55.88;;;35.30;;
31210;SDS011;17836;50.948;3.946;2023-09-12T06:54:29;59.00;;;36.42;;
31210;SDS011;17836;50.948;3.946;2023-09-12T06:56:54;59.73;;;38.10;;
31210;SDS011;17836;50.948;3.946;2023-09-12T06:59:19;56.30;;;35.53;;
31210;SDS011;17836;50.948;3.946;2023-09-12T07:01:47;65.27;;;39.80;;
31210;SDS011;17836;50.948;3.946;2023-09-12T07:04:15;63.38;;;36.88;;
31210;SDS011;17836;50.948;3.946;2023-09-12T07:06:40;59.00;;;38.47;;
31210;SDS011;17836;50.948;3.946;2023-09-12T07:09:08;62.25;;;38.95;;
31210;SDS011;17836;50.948;3.946;2023-09-12T07:11:34;61.33;;;37.47;;
31210;SDS011;17836;50.948;3.946;2023-09-12T07:13:59;62.05;;;38.67;;
31210;SDS011;17836;50.948;3.946;2023-09-12T07:16:25;58.55;;;36.90;;
31210;SDS011;17836;50.948;3.946;2023-09-12T07:18:50;54.85;;;36.33;;
31210;SDS011;17836;50.948;3.946;2023-09-12T07:21:18;60.92;;;37.72;;
31210;SDS011;17836;50.948;3.946;2023-09-12T07:23:47;62.83;;;38.73;;
31210;SDS011;17836;50.948;3.946;2023-09-12T07:26:13;62.08;;;38.70;;
31210;SDS011;17836;50.948;3.946;2023-09-12T07:28:41;58.92;;;36.45;;
31210;SDS011;17836;50.948;3.946;2023-09-12T07:31:06;63.55;;;38.50;;
31210;SDS011;17836;50.948;3.946;2023-09-12T07:33:32;61.50;;;37.15;;
31210;SDS011;17836;50.948;3.946;2023-09-12T07:35:57;66.50;;;37.95;;
31210;SDS011;17836;50.948;3.946;2023-09-12T07:38:27;58.17;;;37.90;;
31210;SDS011;17836;50.948;3.946;2023-09-12T07:40:55;60.63;;;35.83;;
31210;SDS011;17836;50.948;3.946;2023-09-12T07:43:21;54.05;;;34.70;;
31210;SDS011;17836;50.948;3.946;2023-09-12T07:45:46;57.50;;;36.35;;
31210;SDS011;17836;50.948;3.946;2023-09-12T07:48:14;56.22;;;35.58;;
31210;SDS011;17836;50.948;3.946;2023-09-12T07:50:40;62.00;;;36.30;;
31210;SDS011;17836;50.948;3.946;2023-09-12T07:53:05;54.38;;;34.60;;
31210;SDS011;17836;50.948;3.946;2023-09-12T07:55:31;55.47;;;36.10;;
31210;SDS011;17836;50.948;3.946;2023-09-12T07:58:03;53.67;;;36.00;;
31210;SDS011;17836;50.948;3.946;2023-09-12T08:00:29;51.22;;;34.60;;
31210;SDS011;17836;50.948;3.946;2023-09-12T08:02:54;52.70;;;34.83;;
31210;SDS011;17836;50.948;3.946;2023-09-12T08:05:19;52.43;;;34.43;;
31210;SDS011;17836;50.948;3.946;2023-09-12T08:07:45;49.57;;;34.27;;
31210;SDS011;17836;50.948;3.946;2023-09-12T08:10:10;53.80;;;32.80;;
31210;SDS011;17836;50.948;3.946;2023-09-12T08:12:35;45.67;;;31.37;;
31210;SDS011;17836;50.948;3.946;2023-09-12T08:15:03;45.63;;;31.08;;
31210;SDS011;17836;50.948;3.946;2023-09-12T08:17:28;45.45;;;32.05;;
31210;SDS011;17836;50.948;3.946;2023-09-12T08:19:56;43.37;;;31.00;;
31210;SDS011;17836;50.948;3.946;2023-09-12T08:22:22;47.55;;;30.83;;
31210;SDS011;17836;50.948;3.946;2023-09-12T08:24:47;45.53;;;32.27;;
31210;SDS011;17836;50.948;3.946;2023-09-12T08:27:12;46.03;;;32.23;;
31210;SDS011;17836;50.948;3.946;2023-09-12T08:29:40;46.00;;;30.92;;
31210;SDS011;17836;50.948;3.946;2023-09-12T08:32:07;41.58;;;29.23;;
31210;SDS011;17836;50.948;3.946;2023-09-12T08:34:32;43.50;;;30.80;;
31210;SDS011;17836;50.948;3.946;2023-09-12T08:37:00;43.92;;;29.90;;
31210;SDS011;17836;50.948;3.946;2023-09-12T08:39:26;44.60;;;31.08;;
31210;SDS011;17836;50.948;3.946;2023-09-12T08:41:52;41.60;;;30.13;;
31210;SDS011;17836;50.948;3.946;2023-09-12T08:44:18;43.53;;;30.75;;
31210;SDS011;17836;50.948;3.946;2023-09-12T08:46:44;42.13;;;29.95;;
31210;SDS011;17836;50.948;3.946;2023-09-12T08:49:10;40.70;;;29.45;;
31210;SDS011;17836;50.948;3.946;2023-09-12T08:51:38;47.70;;;31.52;;
31210;SDS011;17836;50.948;3.946;2023-09-12T08:54:04;41.80;;;30.35;;
31210;SDS011;17836;50.948;3.946;2023-09-12T08:56:30;43.28;;;29.08;;
31210;SDS011;17836;50.948;3.946;2023-09-12T08:58:57;41.50;;;27.50;;
31210;SDS011;17836;50.948;3.946;2023-09-12T09:01:23;39.28;;;26.55;;
31210;SDS011;17836;50.948;3.946;2023-09-12T09:03:49;43.42;;;28.42;;
31210;SDS011;17836;50.948;3.946;2023-09-12T09:06:16;39.60;;;28.13;;
31210;SDS011;17836;50.948;3.946;2023-09-12T09:08:42;43.30;;;29.90;;
31210;SDS011;17836;50.948;3.946;2023-09-12T09:11:11;35.70;;;27.50;;
31210;SDS011;17836;50.948;3.946;2023-09-12T09:13:36;46.35;;;29.27;;
31210;SDS011;17836;50.948;3.946;2023-09-12T09:16:17;45.45;;;29.88;;
31210;SDS011;17836;50.948;3.946;2023-09-12T09:21:18;43.40;;;29.17;;
31210;SDS011;17836;50.948;3.946;2023-09-12T09:23:45;37.53;;;28.08;;
31210;SDS011;17836;50.948;3.946;2023-09-12T09:26:11;40.38;;;28.67;;
31210;SDS011;17836;50.948;3.946;2023-09-12T09:28:36;34.83;;;26.77;;
31210;SDS011;17836;50.948;3.946;2023-09-12T09:31:01;42.10;;;28.73;;
31210;SDS011;17836;50.948;3.946;2023-09-12T09:33:34;38.83;;;27.90;;
31210;SDS011;17836;50.948;3.946;2023-09-12T09:36:03;37.35;;;28.73;;
31210;SDS011;17836;50.948;3.946;2023-09-12T09:38:29;41.55;;;28.00;;
31210;SDS011;17836;50.948;3.946;2023-09-12T09:40:54;40.10;;;28.52;;
31210;SDS011;17836;50.948;3.946;2023-09-12T09:43:20;39.30;;;27.67;;
31210;SDS011;17836;50.948;3.946;2023-09-12T09:45:46;37.05;;;25.77;;
31210;SDS011;17836;50.948;3.946;2023-09-12T09:48:22;35.17;;;26.13;;
31210;SDS011;17836;50.948;3.946;2023-09-12T09:50:47;35.00;;;24.35;;
31210;SDS011;17836;50.948;3.946;2023-09-12T09:53:13;34.28;;;24.75;;
31210;SDS011;17836;50.948;3.946;2023-09-12T09:55:40;31.63;;;23.42;;
31210;SDS011;17836;50.948;3.946;2023-09-12T09:58:07;25.63;;;20.27;;
31210;SDS011;17836;50.948;3.946;2023-09-12T10:00:38;19.77;;;17.05;;
31210;SDS011;17836;50.948;3.946;2023-09-12T10:03:04;23.15;;;17.88;;
31210;SDS011;17836;50.948;3.946;2023-09-12T10:05:31;25.20;;;18.77;;
31210;SDS011;17836;50.948;3.946;2023-09-12T10:07:59;23.27;;;18.23;;
31210;SDS011;17836;50.948;3.946;2023-09-12T10:10:25;23.65;;;17.70;;
31210;SDS011;17836;50.948;3.946;2023-09-12T10:12:53;23.88;;;18.02;;
31210;SDS011;17836;50.948;3.946;2023-09-12T10:15:20;23.75;;;17.52;;
31210;SDS011;17836;50.948;3.946;2023-09-12T10:17:53;22.92;;;17.60;;
31210;SDS011;17836;50.948;3.946;2023-09-12T10:20:21;19.27;;;15.93;;
31210;SDS011;17836;50.948;3.946;2023-09-12T10:22:53;20.40;;;15.82;;
31210;SDS011;17836;50.948;3.946;2023-09-12T10:25:20;20.23;;;16.75;;
31210;SDS011;17836;50.948;3.946;2023-09-12T10:27:45;19.27;;;15.82;;
31210;SDS011;17836;50.948;3.946;2023-09-12T10:30:11;20.10;;;15.98;;
31210;SDS011;17836;50.948;3.946;2023-09-12T10:32:37;18.42;;;15.82;;
31210;SDS011;17836;50.948;3.946;2023-09-12T10:35:05;17.52;;;14.10;;
31210;SDS011;17836;50.948;3.946;2023-09-12T10:37:31;19.60;;;16.45;;
31210;SDS011;17836;50.948;3.946;2023-09-12T10:39:58;19.25;;;16.33;;
31210;SDS011;17836;50.948;3.946;2023-09-12T10:42:24;17.60;;;14.48;;
31210;SDS011;17836;50.948;3.946;2023-09-12T10:44:51;18.13;;;14.50;;
31210;SDS011;17836;50.948;3.946;2023-09-12T10:47:19;16.23;;;13.98;;
31210;SDS011;17836;50.948;3.946;2023-09-12T10:49:45;17.95;;;12.98;;
31210;SDS011;17836;50.948;3.946;2023-09-12T10:52:10;17.40;;;13.43;;
31210;SDS011;17836;50.948;3.946;2023-09-12T10:54:48;16.20;;;13.40;;
31210;SDS011;17836;50.948;3.946;2023-09-12T10:57:13;20.27;;;12.87;;
31210;SDS011;17836;50.948;3.946;2023-09-12T11:04:57;10.40;;;9.40;;
31210;SDS011;17836;50.948;3.946;2023-09-12T11:07:29;12.80;;;10.13;;
31210;SDS011;17836;50.948;3.946;2023-09-12T11:12:44;11.90;;;10.70;;
31210;SDS011;17836;50.948;3.946;2023-09-12T11:15:09;15.63;;;13.88;;
31210;SDS011;17836;50.948;3.946;2023-09-12T11:17:41;13.27;;;11.40;;
31210;SDS011;17836;50.948;3.946;2023-09-12T11:20:07;13.13;;;11.88;;
31210;SDS011;17836;50.948;3.946;2023-09-12T11:22:37;13.23;;;11.85;;
31210;SDS011;17836;50.948;3.946;2023-09-12T11:25:05;12.48;;;9.98;;
31210;SDS011;17836;50.948;3.946;2023-09-12T11:27:44;13.93;;;12.48;;
31210;SDS011;17836;50.948;3.946;2023-09-12T11:30:10;9.70;;;7.78;;
31210;SDS011;17836;50.948;3.946;2023-09-12T11:32:36;11.68;;;10.50;;
31210;SDS011;17836;50.948;3.946;2023-09-12T11:35:07;13.90;;;11.32;;
31210;SDS011;17836;50.948;3.946;2023-09-12T11:37:32;14.15;;;11.77;;
31210;SDS011;17836;50.948;3.946;2023-09-12T11:39:58;14.82;;;11.90;;
31210;SDS011;17836;50.948;3.946;2023-09-12T11:42:24;13.05;;;11.43;;
31210;SDS011;17836;50.948;3.946;2023-09-12T11:44:52;11.68;;;10.57;;
31210;SDS011;17836;50.948;3.946;2023-09-12T11:47:18;12.20;;;9.85;;
31210;SDS011;17836;50.948;3.946;2023-09-12T11:49:43;11.32;;;10.23;;
31210;SDS011;17836;50.948;3.946;2023-09-12T11:52:09;12.50;;;9.85;;
31210;SDS011;17836;50.948;3.946;2023-09-12T11:54:35;7.80;;;7.03;;
31210;SDS011;17836;50.948;3.946;2023-09-12T11:57:01;8.40;;;7.67;;
31210;SDS011;17836;50.948;3.946;2023-09-12T11:59:26;10.10;;;8.77;;
31210;SDS011;17836;50.948;3.946;2023-09-12T12:01:52;9.60;;;8.73;;
31210;SDS011;17836;50.948;3.946;2023-09-12T12:04:20;8.52;;;7.15;;
31210;SDS011;17836;50.948;3.946;2023-09-12T12:06:45;7.75;;;6.85;;
31210;SDS011;17836;50.948;3.946;2023-09-12T12:09:11;7.93;;;6.73;;
31210;SDS011;17836;50.948;3.946;2023-09-12T12:11:36;7.82;;;6.70;;
31210;SDS011;17836;50.948;3.946;2023-09-12T12:14:09;9.18;;;6.70;;
31210;SDS011;17836;50.948;3.946;2023-09-12T12:16:34;10.32;;;6.47;;
31210;SDS011;17836;50.948;3.946;2023-09-12T12:18:59;6.13;;;5.53;;
31210;SDS011;17836;50.948;3.946;2023-09-12T12:21:25;9.63;;;8.73;;
31210;SDS011;17836;50.948;3.946;2023-09-12T12:24:01;8.30;;;6.75;;
31210;SDS011;17836;50.948;3.946;2023-09-12T12:26:30;8.98;;;6.43;;
31210;SDS011;17836;50.948;3.946;2023-09-12T12:28:55;8.65;;;7.93;;
31210;SDS011;17836;50.948;3.946;2023-09-12T12:31:21;9.05;;;8.15;;
31210;SDS011;17836;50.948;3.946;2023-09-12T12:33:52;10.30;;;7.97;;
31210;SDS011;17836;50.948;3.946;2023-09-12T12:36:17;9.05;;;8.13;;
31210;SDS011;17836;50.948;3.946;2023-09-12T12:38:43;11.07;;;7.78;;
31210;SDS011;17836;50.948;3.946;2023-09-12T12:41:10;11.10;;;9.38;;
31210;SDS011;17836;50.948;3.946;2023-09-12T12:43:39;7.80;;;7.10;;
31210;SDS011;17836;50.948;3.946;2023-09-12T12:46:04;10.50;;;8.40;;
31210;SDS011;17836;50.948;3.946;2023-09-12T12:48:35;11.05;;;7.43;;
31210;SDS011;17836;50.948;3.946;2023-09-12T12:53:46;9.18;;;7.10;;
31210;SDS011;17836;50.948;3.946;2023-09-12T12:56:15;12.63;;;7.03;;
31210;SDS011;17836;50.948;3.946;2023-09-12T12:58:45;8.05;;;6.60;;
31210;SDS011;17836;50.948;3.946;2023-09-12T13:01:10;9.55;;;8.55;;
31210;SDS011;17836;50.948;3.946;2023-09-12T13:03:38;9.73;;;8.73;;
31210;SDS011;17836;50.948;3.946;2023-09-12T13:06:04;8.48;;;7.68;;
31210;SDS011;17836;50.948;3.946;2023-09-12T13:08:32;9.10;;;8.15;;
31210;SDS011;17836;50.948;3.946;2023-09-12T13:10:59;13.73;;;9.18;;
31210;SDS011;17836;50.948;3.946;2023-09-12T13:13:25;8.75;;;7.88;;
31210;SDS011;17836;50.948;3.946;2023-09-12T13:15:50;11.90;;;9.80;;
31210;SDS011;17836;50.948;3.946;2023-09-12T13:18:15;10.07;;;8.67;;
31210;SDS011;17836;50.948;3.946;2023-09-12T13:20:43;9.40;;;8.40;;
31210;SDS011;17836;50.948;3.946;2023-09-12T13:23:08;12.38;;;9.45;;
31210;SDS011;17836;50.948;3.946;2023-09-12T13:25:34;11.73;;;8.80;;
31210;SDS011;17836;50.948;3.946;2023-09-12T13:27:59;10.83;;;9.87;;
31210;SDS011;17836;50.948;3.946;2023-09-12T13:30:24;11.55;;;10.32;;
31210;SDS011;17836;50.948;3.946;2023-09-12T13:32:49;12.90;;;10.73;;
31210;SDS011;17836;50.948;3.946;2023-09-12T13:35:15;13.37;;;11.70;;
31210;SDS011;17836;50.948;3.946;2023-09-12T13:37:40;16.90;;;14.47;;
31210;SDS011;17836;50.948;3.946;2023-09-12T13:40:05;16.93;;;13.33;;
31210;SDS011;17836;50.948;3.946;2023-09-12T13:42:33;17.17;;;12.85;;
31210;SDS011;17836;50.948;3.946;2023-09-12T13:44:59;14.20;;;12.87;;
31210;SDS011;17836;50.948;3.946;2023-09-12T13:47:24;13.87;;;12.40;;
31210;SDS011;17836;50.948;3.946;2023-09-12T13:49:50;14.88;;;13.18;;
31210;SDS011;17836;50.948;3.946;2023-09-12T13:52:19;18.58;;;12.82;;
31210;SDS011;17836;50.948;3.946;2023-09-12T13:54:44;14.05;;;11.48;;
31210;SDS011;17836;50.948;3.946;2023-09-12T13:57:10;11.83;;;10.37;;
31210;SDS011;17836;50.948;3.946;2023-09-12T13:59:38;10.93;;;9.60;;
31210;SDS011;17836;50.948;3.946;2023-09-12T14:02:03;9.03;;;8.13;;
31210;SDS011;17836;50.948;3.946;2023-09-12T14:04:28;12.60;;;8.90;;
31210;SDS011;17836;50.948;3.946;2023-09-12T14:06:54;12.10;;;10.07;;
31210;SDS011;17836;50.948;3.946;2023-09-12T14:09:19;9.30;;;8.03;;
31210;SDS011;17836;50.948;3.946;2023-09-12T14:11:46;11.27;;;9.80;;
31210;SDS011;17836;50.948;3.946;2023-09-12T14:14:12;10.75;;;8.93;;
31210;SDS011;17836;50.948;3.946;2023-09-12T14:16:37;10.47;;;9.37;;
31210;SDS011;17836;50.948;3.946;2023-09-12T14:19:03;10.83;;;9.57;;
31210;SDS011;17836;50.948;3.946;2023-09-12T14:21:28;10.73;;;9.67;;
31210;SDS011;17836;50.948;3.946;2023-09-12T14:23:53;10.40;;;9.40;;
31210;SDS011;17836;50.948;3.946;2023-09-12T14:26:18;14.47;;;9.70;;
31210;SDS011;17836;50.948;3.946;2023-09-12T14:28:44;9.60;;;8.60;;
31210;SDS011;17836;50.948;3.946;2023-09-12T14:31:09;11.85;;;10.65;;
31210;SDS011;17836;50.948;3.946;2023-09-12T14:33:39;11.77;;;10.57;;
31210;SDS011;17836;50.948;3.946;2023-09-12T14:36:05;11.85;;;9.20;;
31210;SDS011;17836;50.948;3.946;2023-09-12T14:38:30;11.23;;;10.13;;
31210;SDS011;17836;50.948;3.946;2023-09-12T14:40:55;13.67;;;11.53;;
31210;SDS011;17836;50.948;3.946;2023-09-12T14:43:21;16.23;;;10.27;;
31210;SDS011;17836;50.948;3.946;2023-09-12T14:45:48;12.60;;;10.68;;